sensor_id;sensor_type;location;lat;lon;timestamp;pressure;altitude;pressure_sealevel;temperature;humidity
28665;BME280;15850;47.524;7.814;2022-11-20T00:02:02;97435.59;;;4.95;100.00
28665;BME280;15850;47.524;7.814;2022-11-20T00:04:29;97444.84;;;5.03;100.00
28665;BME280;15850;47.524;7.814;2022-11-20T00:06:54;97441.25;;;5.08;100.00
28665;BME280;15850;47.524;7.814;2022-11-20T00:09:20;97442.72;;;5.14;100.00
28665;BME280;15850;47.524;7.814;2022-11-20T00:11:45;97451.53;;;5.06;100.00
28665;BME280;15850;47.524;7.814;2022-11-20T00:14:10;97449.75;;;5.01;100.00
28665;BME280;15850;47.524;7.814;2022-11-20T00:16:36;97453.06;;;5.21;100.00
28665;BME280;15850;47.524;7.814;2022-11-20T00:19:01;97448.72;;;5.11;100.00
28665;BME280;15850;47.524;7.814;2022-11-20T00:21:29;97452.28;;;5.20;100.00
28665;BME280;15850;47.524;7.814;2022-11-20T00:23:55;97455.09;;;5.15;100.00
28665;BME280;15850;47.524;7.814;2022-11-20T00:26:21;97452.06;;;5.16;100.00
28665;BME280;15850;47.524;7.814;2022-11-20T00:28:49;97449.59;;;5.20;100.00
28665;BME280;15850;47.524;7.814;2022-11-20T00:31:14;97455.44;;;5.22;100.00
28665;BME280;15850;47.524;7.814;2022-11-20T00:33:40;97461.31;;;5.47;100.00
28665;BME280;15850;47.524;7.814;2022-11-20T00:36:06;97453.22;;;5.47;100.00
28665;BME280;15850;47.524;7.814;2022-11-20T00:38:34;97455.44;;;5.45;100.00
28665;BME280;15850;47.524;7.814;2022-11-20T00:41:00;97459.38;;;5.38;100.00
28665;BME280;15850;47.524;7.814;2022-11-20T00:43:26;97456.38;;;5.40;100.00
28665;BME280;15850;47.524;7.814;2022-11-20T00:45:55;97453.16;;;5.38;100.00
28665;BME280;15850;47.524;7.814;2022-11-20T00:48:21;97457.88;;;5.32;100.00
28665;BME280;15850;47.524;7.814;2022-11-20T00:50:46;97457.94;;;5.41;100.00
28665;BME280;15850;47.524;7.814;2022-11-20T00:53:11;97460.16;;;5.39;100.00
28665;BME280;15850;47.524;7.814;2022-11-20T00:55:38;97460.81;;;5.45;100.00
28665;BME280;15850;47.524;7.814;2022-11-20T00:58:03;97460.72;;;5.50;100.00
28665;BME280;15850;47.524;7.814;2022-11-20T01:00:29;97464.66;;;5.44;100.00
28665;BME280;15850;47.524;7.814;2022-11-20T01:02:55;97459.28;;;5.52;100.00
28665;BME280;15850;47.524;7.814;2022-11-20T01:05:21;97460.31;;;5.42;100.00
28665;BME280;15850;47.524;7.814;2022-11-20T01:07:46;97465.91;;;5.46;100.00
28665;BME280;15850;47.524;7.814;2022-11-20T01:10:11;97462.81;;;5.30;100.00
28665;BME280;15850;47.524;7.814;2022-11-20T01:12:38;97466.78;;;5.33;100.00
28665;BME280;15850;47.524;7.814;2022-11-20T01:15:04;97462.72;;;5.44;100.00
28665;BME280;15850;47.524;7.814;2022-11-20T01:17:30;97457.78;;;5.37;100.00
28665;BME280;15850;47.524;7.814;2022-11-20T01:19:55;97470.47;;;5.37;100.00
28665;BME280;15850;47.524;7.814;2022-11-20T01:22:21;97465.91;;;5.46;100.00
28665;BME280;15850;47.524;7.814;2022-11-20T01:24:46;97476.25;;;5.53;100.00
28665;BME280;15850;47.524;7.814;2022-11-20T01:27:12;97471.69;;;5.53;100.00
28665;BME280;15850;47.524;7.814;2022-11-20T01:29:38;97469.00;;;5.62;100.00
28665;BME280;15850;47.524;7.814;2022-11-20T01:32:04;97480.31;;;5.64;100.00
28665;BME280;15850;47.524;7.814;2022-11-20T01:34:29;97481.88;;;5.65;100.00
28665;BME280;15850;47.524;7.814;2022-11-20T01:36:55;97483.97;;;5.68;100.00
28665;BME280;15850;47.524;7.814;2022-11-20T01:39:20;97484.25;;;5.58;100.00
28665;BME280;15850;47.524;7.814;2022-11-20T01:41:47;97483.13;;;5.59;100.00
28665;BME280;15850;47.524;7.814;2022-11-20T01:44:13;97491.38;;;5.54;100.00
28665;BME280;15850;47.524;7.814;2022-11-20T01:46:42;97491.84;;;5.56;100.00
28665;BME280;15850;47.524;7.814;2022-11-20T01:49:11;97490.78;;;5.65;100.00
28665;BME280;15850;47.524;7.814;2022-11-20T01:51:40;97483.53;;;5.75;100.00
28665;BME280;15850;47.524;7.814;2022-11-20T01:54:08;97482.41;;;5.76;100.00
28665;BME280;15850;47.524;7.814;2022-11-20T01:56:35;97482.38;;;5.67;100.00
28665;BME280;15850;47.524;7.814;2022-11-20T01:59:02;97486.63;;;5.59;100.00
28665;BME280;15850;47.524;7.814;2022-11-20T02:01:28;97485.00;;;5.50;100.00
28665;BME280;15850;47.524;7.814;2022-11-20T02:03:56;97490.31;;;5.41;100.00
28665;BME280;15850;47.524;7.814;2022-11-20T02:06:22;97493.31;;;5.39;100.00
28665;BME280;15850;47.524;7.814;2022-11-20T02:08:49;97489.22;;;5.42;100.00
28665;BME280;15850;47.524;7.814;2022-11-20T02:11:14;97488.94;;;5.44;100.00
28665;BME280;15850;47.524;7.814;2022-11-20T02:13:40;97489.91;;;5.48;100.00
28665;BME280;15850;47.524;7.814;2022-11-20T02:16:05;97486.41;;;5.47;100.00
28665;BME280;15850;47.524;7.814;2022-11-20T02:18:33;97488.34;;;5.55;100.00
28665;BME280;15850;47.524;7.814;2022-11-20T02:21:00;97478.22;;;5.61;100.00
28665;BME280;15850;47.524;7.814;2022-11-20T02:23:28;97486.50;;;5.64;100.00
28665;BME280;15850;47.524;7.814;2022-11-20T02:25:57;97487.00;;;5.67;100.00
28665;BME280;15850;47.524;7.814;2022-11-20T02:28:23;97477.84;;;5.76;100.00
28665;BME280;15850;47.524;7.814;2022-11-20T02:30:49;97481.00;;;5.78;100.00
28665;BME280;15850;47.524;7.814;2022-11-20T02:33:14;97488.22;;;5.92;100.00
28665;BME280;15850;47.524;7.814;2022-11-20T02:35:41;97476.81;;;5.95;100.00
28665;BME280;15850;47.524;7.814;2022-11-20T02:38:07;97473.50;;;5.98;100.00
28665;BME280;15850;47.524;7.814;2022-11-20T02:40:32;97478.19;;;5.92;100.00
28665;BME280;15850;47.524;7.814;2022-11-20T02:42:59;97470.91;;;5.93;100.00
28665;BME280;15850;47.524;7.814;2022-11-20T02:45:24;97478.97;;;5.84;100.00
28665;BME280;15850;47.524;7.814;2022-11-20T02:47:49;97479.41;;;5.77;100.00
28665;BME280;15850;47.524;7.814;2022-11-20T02:50:15;97479.88;;;5.71;100.00
28665;BME280;15850;47.524;7.814;2022-11-20T02:52:40;97483.34;;;5.71;100.00
28665;BME280;15850;47.524;7.814;2022-11-20T02:55:06;97479.97;;;5.65;100.00
28665;BME280;15850;47.524;7.814;2022-11-20T02:57:31;97481.50;;;5.80;100.00
28665;BME280;15850;47.524;7.814;2022-11-20T02:59:58;97484.38;;;5.84;100.00
28665;BME280;15850;47.524;7.814;2022-11-20T03:02:23;97474.97;;;5.81;100.00
28665;BME280;15850;47.524;7.814;2022-11-20T03:04:49;97482.63;;;5.88;100.00
28665;BME280;15850;47.524;7.814;2022-11-20T03:07:14;97478.41;;;5.96;100.00
28665;BME280;15850;47.524;7.814;2022-11-20T03:09:39;97473.66;;;6.01;100.00
28665;BME280;15850;47.524;7.814;2022-11-20T03:12:05;97482.25;;;6.03;100.00
28665;BME280;15850;47.524;7.814;2022-11-20T03:14:30;97487.84;;;6.07;100.00
28665;BME280;15850;47.524;7.814;2022-11-20T03:16:57;97483.34;;;6.02;100.00
28665;BME280;15850;47.524;7.814;2022-11-20T03:19:23;97480.97;;;6.01;100.00
28665;BME280;15850;47.524;7.814;2022-11-20T03:21:48;97488.31;;;6.09;100.00
28665;BME280;15850;47.524;7.814;2022-11-20T03:24:14;97479.75;;;6.16;100.00
28665;BME280;15850;47.524;7.814;2022-11-20T03:26:39;97486.09;;;6.11;100.00
28665;BME280;15850;47.524;7.814;2022-11-20T03:29:04;97484.28;;;5.98;100.00
28665;BME280;15850;47.524;7.814;2022-11-20T03:31:31;97480.97;;;6.01;100.00
28665;BME280;15850;47.524;7.814;2022-11-20T03:33:58;97477.66;;;6.04;100.00
28665;BME280;15850;47.524;7.814;2022-11-20T03:36:24;97486.03;;;5.94;100.00
28665;BME280;15850;47.524;7.814;2022-11-20T03:38:49;97485.94;;;5.76;100.00
28665;BME280;15850;47.524;7.814;2022-11-20T03:41:16;97480.97;;;5.70;100.00
28665;BME280;15850;47.524;7.814;2022-11-20T03:43:41;97478.28;;;5.70;100.00
28665;BME280;15850;47.524;7.814;2022-11-20T03:46:07;97477.28;;;5.65;100.00
28665;BME280;15850;47.524;7.814;2022-11-20T03:48:32;97484.06;;;5.54;100.00
28665;BME280;15850;47.524;7.814;2022-11-20T03:51:09;97489.47;;;5.54;100.00
28665;BME280;15850;47.524;7.814;2022-11-20T03:53:35;97492.72;;;5.42;100.00
28665;BME280;15850;47.524;7.814;2022-11-20T03:56:00;97494.94;;;5.40;100.00
28665;BME280;15850;47.524;7.814;2022-11-20T03:58:25;97482.03;;;5.60;100.00
28665;BME280;15850;47.524;7.814;2022-11-20T04:00:51;97484.84;;;5.55;100.00
28665;BME280;15850;47.524;7.814;2022-11-20T04:03:16;97482.91;;;5.47;100.00
28665;BME280;15850;47.524;7.814;2022-11-20T04:05:42;97484.41;;;5.30;100.00
28665;BME280;15850;47.524;7.814;2022-11-20T04:08:08;97491.19;;;5.28;100.00
28665;BME280;15850;47.524;7.814;2022-11-20T04:10:34;97488.34;;;5.33;100.00
28665;BME280;15850;47.524;7.814;2022-11-20T04:12:59;97499.56;;;5.49;100.00
28665;BME280;15850;47.524;7.814;2022-11-20T04:15:24;97496.50;;;5.41;100.00
28665;BME280;15850;47.524;7.814;2022-11-20T04:17:50;97500.16;;;5.68;100.00
28665;BME280;15850;47.524;7.814;2022-11-20T04:23:03;97504.94;;;5.71;100.00
28665;BME280;15850;47.524;7.814;2022-11-20T04:25:30;97511.31;;;5.75;100.00
28665;BME280;15850;47.524;7.814;2022-11-20T04:27:55;97506.25;;;5.74;100.00
28665;BME280;15850;47.524;7.814;2022-11-20T04:30:21;97508.75;;;5.70;100.00
28665;BME280;15850;47.524;7.814;2022-11-20T04:32:46;97517.66;;;5.93;100.00
28665;BME280;15850;47.524;7.814;2022-11-20T04:35:11;97520.59;;;5.60;100.00
28665;BME280;15850;47.524;7.814;2022-11-20T04:37:37;97517.47;;;5.67;100.00
28665;BME280;15850;47.524;7.814;2022-11-20T04:40:02;97520.03;;;5.72;100.00
28665;BME280;15850;47.524;7.814;2022-11-20T04:42:29;97524.59;;;5.63;100.00
28665;BME280;15850;47.524;7.814;2022-11-20T04:44:54;97522.19;;;5.61;100.00
28665;BME280;15850;47.524;7.814;2022-11-20T04:47:20;97521.22;;;5.57;100.00
28665;BME280;15850;47.524;7.814;2022-11-20T04:49:45;97518.97;;;5.51;100.00
28665;BME280;15850;47.524;7.814;2022-11-20T04:52:11;97515.59;;;5.45;100.00
28665;BME280;15850;47.524;7.814;2022-11-20T04:54:36;97514.78;;;5.45;100.00
28665;BME280;15850;47.524;7.814;2022-11-20T04:57:01;97508.97;;;5.29;100.00
28665;BME280;15850;47.524;7.814;2022-11-20T04:59:28;97517.50;;;5.45;100.00
28665;BME280;15850;47.524;7.814;2022-11-20T05:01:53;97511.38;;;5.30;100.00
28665;BME280;15850;47.524;7.814;2022-11-20T05:04:19;97512.28;;;5.26;100.00
28665;BME280;15850;47.524;7.814;2022-11-20T05:06:44;97518.66;;;5.30;100.00
28665;BME280;15850;47.524;7.814;2022-11-20T05:09:09;97510.31;;;5.17;100.00
28665;BME280;15850;47.524;7.814;2022-11-20T05:11:35;97512.31;;;5.12;100.00
28665;BME280;15850;47.524;7.814;2022-11-20T05:14:00;97516.59;;;5.13;100.00
28665;BME280;15850;47.524;7.814;2022-11-20T05:16:27;97501.69;;;4.93;100.00
28665;BME280;15850;47.524;7.814;2022-11-20T05:18:53;97500.38;;;5.04;100.00
28665;BME280;15850;47.524;7.814;2022-11-20T05:21:18;97504.66;;;5.05;100.00
28665;BME280;15850;47.524;7.814;2022-11-20T05:23:44;97502.13;;;4.86;100.00
28665;BME280;15850;47.524;7.814;2022-11-20T05:26:12;97497.56;;;4.87;100.00
28665;BME280;15850;47.524;7.814;2022-11-20T05:28:37;97506.25;;;5.06;100.00
28665;BME280;15850;47.524;7.814;2022-11-20T05:31:06;97506.13;;;4.89;100.00
28665;BME280;15850;47.524;7.814;2022-11-20T05:33:33;97501.03;;;4.87;100.00
28665;BME280;15850;47.524;7.814;2022-11-20T05:35:59;97502.53;;;4.93;100.00
28665;BME280;15850;47.524;7.814;2022-11-20T05:38:24;97503.25;;;5.08;100.00
28665;BME280;15850;47.524;7.814;2022-11-20T05:40:49;97504.25;;;5.12;100.00
28665;BME280;15850;47.524;7.814;2022-11-20T05:43:15;97501.88;;;4.97;100.00
28665;BME280;15850;47.524;7.814;2022-11-20T05:45:40;97509.44;;;5.08;100.00
28665;BME280;15850;47.524;7.814;2022-11-20T05:48:05;97508.03;;;5.11;100.00
28665;BME280;15850;47.524;7.814;2022-11-20T05:50:32;97513.53;;;5.06;100.00
28665;BME280;15850;47.524;7.814;2022-11-20T05:52:57;97509.63;;;5.12;100.00
28665;BME280;15850;47.524;7.814;2022-11-20T05:55:23;97513.31;;;5.16;100.00
28665;BME280;15850;47.524;7.814;2022-11-20T05:57:48;97511.72;;;5.15;100.00
28665;BME280;15850;47.524;7.814;2022-11-20T06:00:14;97513.69;;;5.01;100.00
28665;BME280;15850;47.524;7.814;2022-11-20T06:02:39;97509.78;;;5.07;100.00
28665;BME280;15850;47.524;7.814;2022-11-20T06:05:05;97506.06;;;5.03;100.00
28665;BME280;15850;47.524;7.814;2022-11-20T06:07:32;97503.88;;;5.05;100.00
28665;BME280;15850;47.524;7.814;2022-11-20T06:09:57;97503.88;;;5.05;100.00
28665;BME280;15850;47.524;7.814;2022-11-20T06:12:22;97512.47;;;5.07;100.00
28665;BME280;15850;47.524;7.814;2022-11-20T06:14:48;97509.53;;;5.17;100.00
28665;BME280;15850;47.524;7.814;2022-11-20T06:17:13;97503.03;;;5.18;100.00
28665;BME280;15850;47.524;7.814;2022-11-20T06:19:38;97503.38;;;5.25;100.00
28665;BME280;15850;47.524;7.814;2022-11-20T06:22:04;97502.06;;;5.36;100.00
28665;BME280;15850;47.524;7.814;2022-11-20T06:24:30;97512.84;;;5.36;100.00
28665;BME280;15850;47.524;7.814;2022-11-20T06:26:56;97509.75;;;5.52;100.00
28665;BME280;15850;47.524;7.814;2022-11-20T06:29:21;97510.88;;;5.51;100.00
28665;BME280;15850;47.524;7.814;2022-11-20T06:31:46;97509.91;;;5.47;100.00
28665;BME280;15850;47.524;7.814;2022-11-20T06:34:12;97514.34;;;5.51;100.00
28665;BME280;15850;47.524;7.814;2022-11-20T06:36:37;97510.91;;;5.59;100.00
28665;BME280;15850;47.524;7.814;2022-11-20T06:39:03;97510.91;;;5.59;100.00
28665;BME280;15850;47.524;7.814;2022-11-20T06:41:29;97510.44;;;5.57;100.00
28665;BME280;15850;47.524;7.814;2022-11-20T06:43:55;97507.66;;;5.49;100.00
28665;BME280;15850;47.524;7.814;2022-11-20T06:46:21;97516.09;;;5.47;100.00
28665;BME280;15850;47.524;7.814;2022-11-20T06:48:47;97514.69;;;5.81;100.00
28665;BME280;15850;47.524;7.814;2022-11-20T06:51:12;97512.28;;;5.79;100.00
28665;BME280;15850;47.524;7.814;2022-11-20T06:53:38;97518.56;;;5.66;100.00
28665;BME280;15850;47.524;7.814;2022-11-20T06:56:04;97520.78;;;5.64;100.00
28665;BME280;15850;47.524;7.814;2022-11-20T06:58:32;97522.72;;;5.72;100.00
28665;BME280;15850;47.524;7.814;2022-11-20T07:00:58;97518.38;;;5.62;100.00
28665;BME280;15850;47.524;7.814;2022-11-20T07:03:24;97521.50;;;5.56;100.00
28665;BME280;15850;47.524;7.814;2022-11-20T07:05:49;97519.22;;;5.40;100.00
28665;BME280;15850;47.524;7.814;2022-11-20T07:08:15;97516.00;;;5.38;100.00
28665;BME280;15850;47.524;7.814;2022-11-20T07:10:40;97521.41;;;5.38;100.00
28665;BME280;15850;47.524;7.814;2022-11-20T07:13:05;97520.41;;;5.12;100.00
28665;BME280;15850;47.524;7.814;2022-11-20T07:15:32;97524.84;;;5.08;100.00
28665;BME280;15850;47.524;7.814;2022-11-20T07:17:58;97524.09;;;5.16;100.00
28665;BME280;15850;47.524;7.814;2022-11-20T07:20:24;97529.81;;;5.14;100.00
28665;BME280;15850;47.524;7.814;2022-11-20T07:22:52;97528.75;;;5.02;100.00
28665;BME280;15850;47.524;7.814;2022-11-20T07:25:18;97532.59;;;5.23;100.00
28665;BME280;15850;47.524;7.814;2022-11-20T07:27:43;97533.81;;;5.17;100.00
28665;BME280;15850;47.524;7.814;2022-11-20T07:30:09;97534.41;;;5.14;100.00
28665;BME280;15850;47.524;7.814;2022-11-20T07:32:35;97534.97;;;5.25;100.00
28665;BME280;15850;47.524;7.814;2022-11-20T07:35:01;97528.34;;;5.31;100.00
28665;BME280;15850;47.524;7.814;2022-11-20T07:37:26;97532.53;;;5.37;100.00
28665;BME280;15850;47.524;7.814;2022-11-20T07:39:51;97539.31;;;5.34;100.00
28665;BME280;15850;47.524;7.814;2022-11-20T07:42:17;97539.69;;;5.41;100.00
28665;BME280;15850;47.524;7.814;2022-11-20T07:44:42;97533.94;;;5.34;100.00
28665;BME280;15850;47.524;7.814;2022-11-20T07:47:07;97538.91;;;5.41;100.00
28665;BME280;15850;47.524;7.814;2022-11-20T07:49:34;97535.59;;;5.44;100.00
28665;BME280;15850;47.524;7.814;2022-11-20T07:51:59;97534.75;;;5.66;100.00
28665;BME280;15850;47.524;7.814;2022-11-20T07:54:25;97534.69;;;5.80;100.00
28665;BME280;15850;47.524;7.814;2022-11-20T07:56:50;97536.97;;;5.86;100.00
28665;BME280;15850;47.524;7.814;2022-11-20T07:59:15;97537.75;;;6.18;100.00
28665;BME280;15850;47.524;7.814;2022-11-20T08:01:41;97539.56;;;6.31;100.00
28665;BME280;15850;47.524;7.814;2022-11-20T08:04:06;97542.63;;;6.47;100.00
28665;BME280;15850;47.524;7.814;2022-11-20T08:09:08;97552.16;;;6.36;100.00
28665;BME280;15850;47.524;7.814;2022-11-20T08:11:33;97550.19;;;6.28;100.00
28665;BME280;15850;47.524;7.814;2022-11-20T08:13:59;97557.59;;;6.53;100.00
28665;BME280;15850;47.524;7.814;2022-11-20T08:16:24;97551.28;;;6.67;100.00
28665;BME280;15850;47.524;7.814;2022-11-20T08:18:50;97553.34;;;6.78;100.00
28665;BME280;15850;47.524;7.814;2022-11-20T08:21:15;97554.97;;;6.79;100.00
28665;BME280;15850;47.524;7.814;2022-11-20T08:23:40;97559.44;;;6.93;100.00
28665;BME280;15850;47.524;7.814;2022-11-20T08:26:07;97557.03;;;6.91;100.00
28665;BME280;15850;47.524;7.814;2022-11-20T08:31:03;97554.22;;;7.14;100.00
28665;BME280;15850;47.524;7.814;2022-11-20T08:33:28;97550.22;;;7.11;100.00
28665;BME280;15850;47.524;7.814;2022-11-20T08:35:57;97558.81;;;7.30;100.00
28665;BME280;15850;47.524;7.814;2022-11-20T08:38:23;97561.06;;;7.46;100.00
28665;BME280;15850;47.524;7.814;2022-11-20T08:40:48;97559.94;;;7.47;100.00
28665;BME280;15850;47.524;7.814;2022-11-20T08:43:15;97564.56;;;7.38;100.00
28665;BME280;15850;47.524;7.814;2022-11-20T08:45:40;97568.06;;;7.38;100.00
28665;BME280;15850;47.524;7.814;2022-11-20T08:48:05;97563.47;;;7.39;100.00
28665;BME280;15850;47.524;7.814;2022-11-20T08:50:31;97565.19;;;7.35;100.00
28665;BME280;15850;47.524;7.814;2022-11-20T08:53:01;97567.91;;;7.26;100.00
28665;BME280;15850;47.524;7.814;2022-11-20T08:55:26;97572.84;;;7.33;100.00
28665;BME280;15850;47.524;7.814;2022-11-20T08:57:51;97575.88;;;7.40;100.00
28665;BME280;15850;47.524;7.814;2022-11-20T09:00:18;97574.28;;;7.39;100.00
28665;BME280;15850;47.524;7.814;2022-11-20T09:02:44;97575.69;;;7.62;100.00
28665;BME280;15850;47.524;7.814;2022-11-20T09:05:09;97572.53;;;7.43;100.00
28665;BME280;15850;47.524;7.814;2022-11-20T09:07:35;97579.53;;;7.26;100.00
28665;BME280;15850;47.524;7.814;2022-11-20T09:10:00;97580.63;;;7.34;100.00
28665;BME280;15850;47.524;7.814;2022-11-20T09:12:25;97573.16;;;7.40;100.00
28665;BME280;15850;47.524;7.814;2022-11-20T09:14:51;97572.84;;;7.59;100.00
28665;BME280;15850;47.524;7.814;2022-11-20T09:17:17;97575.69;;;7.45;100.00
28665;BME280;15850;47.524;7.814;2022-11-20T09:19:43;97581.44;;;7.52;100.00
28665;BME280;15850;47.524;7.814;2022-11-20T09:22:08;97577.63;;;7.53;98.83
28665;BME280;15850;47.524;7.814;2022-11-20T09:24:33;97582.03;;;7.84;98.32
28665;BME280;15850;47.524;7.814;2022-11-20T09:27:01;97584.13;;;7.61;97.81
28665;BME280;15850;47.524;7.814;2022-11-20T09:29:26;97581.59;;;7.38;100.00
28665;BME280;15850;47.524;7.814;2022-11-20T09:31:51;97584.13;;;7.69;100.00
28665;BME280;15850;47.524;7.814;2022-11-20T09:34:18;97587.47;;;7.66;99.34
28665;BME280;15850;47.524;7.814;2022-11-20T09:36:43;97591.59;;;7.90;100.00
28665;BME280;15850;47.524;7.814;2022-11-20T09:39:08;97591.91;;;7.80;96.95
28665;BME280;15850;47.524;7.814;2022-11-20T09:41:36;97591.72;;;8.02;96.20
28665;BME280;15850;47.524;7.814;2022-11-20T09:44:07;97597.00;;;7.81;97.77
28665;BME280;15850;47.524;7.814;2022-11-20T09:46:40;97597.34;;;7.80;99.29
28665;BME280;15850;47.524;7.814;2022-11-20T09:49:14;97592.53;;;8.03;98.63
28665;BME280;15850;47.524;7.814;2022-11-20T09:51:48;97595.28;;;7.68;97.52
28665;BME280;15850;47.524;7.814;2022-11-20T09:54:19;97593.50;;;7.81;98.65
28665;BME280;15850;47.524;7.814;2022-11-20T09:56:46;97590.97;;;7.75;99.57
28665;BME280;15850;47.524;7.814;2022-11-20T09:59:18;97590.66;;;7.86;97.85
28665;BME280;15850;47.524;7.814;2022-11-20T10:01:45;97590.78;;;7.98;97.94
28665;BME280;15850;47.524;7.814;2022-11-20T10:04:12;97587.09;;;7.94;97.58
28665;BME280;15850;47.524;7.814;2022-11-20T10:06:41;97585.75;;;8.35;98.59
28665;BME280;15850;47.524;7.814;2022-11-20T10:09:16;97585.22;;;8.50;95.74
28665;BME280;15850;47.524;7.814;2022-11-20T10:14:56;97593.09;;;8.17;98.72
28665;BME280;15850;47.524;7.814;2022-11-20T10:17:30;97589.31;;;8.09;98.16
28665;BME280;15850;47.524;7.814;2022-11-20T10:20:02;97590.19;;;8.31;100.00
28665;BME280;15850;47.524;7.814;2022-11-20T10:22:40;97588.97;;;8.66;98.47
28665;BME280;15850;47.524;7.814;2022-11-20T10:25:13;97586.84;;;8.81;99.53
28665;BME280;15850;47.524;7.814;2022-11-20T10:27:51;97586.66;;;8.77;97.17
28665;BME280;15850;47.524;7.814;2022-11-20T10:30:21;97580.53;;;8.12;95.04
28665;BME280;15850;47.524;7.814;2022-11-20T10:32:47;97583.94;;;7.74;99.39
28665;BME280;15850;47.524;7.814;2022-11-20T10:35:19;97581.25;;;7.83;100.00
28665;BME280;15850;47.524;7.814;2022-11-20T10:37:46;97579.66;;;7.82;100.00
28665;BME280;15850;47.524;7.814;2022-11-20T10:40:19;97577.38;;;8.02;100.00
28665;BME280;15850;47.524;7.814;2022-11-20T10:42:46;97570.63;;;8.63;100.00
28665;BME280;15850;47.524;7.814;2022-11-20T10:45:18;97568.84;;;8.97;100.00
28665;BME280;15850;47.524;7.814;2022-11-20T10:47:46;97571.00;;;9.12;99.48
28665;BME280;15850;47.524;7.814;2022-11-20T10:50:14;97572.03;;;9.20;100.00
28665;BME280;15850;47.524;7.814;2022-11-20T10:52:42;97569.97;;;8.66;97.08
28665;BME280;15850;47.524;7.814;2022-11-20T10:55:16;97570.84;;;8.58;98.43
28665;BME280;15850;47.524;7.814;2022-11-20T10:57:52;97555.91;;;8.35;100.00
28665;BME280;15850;47.524;7.814;2022-11-20T11:00:18;97552.22;;;8.48;99.85
28665;BME280;15850;47.524;7.814;2022-11-20T11:02:44;97557.66;;;8.48;100.00
28665;BME280;15850;47.524;7.814;2022-11-20T11:05:14;97548.88;;;8.42;100.00
28665;BME280;15850;47.524;7.814;2022-11-20T11:07:41;97555.31;;;8.38;100.00
28665;BME280;15850;47.524;7.814;2022-11-20T11:10:13;97539.78;;;8.47;100.00
28665;BME280;15850;47.524;7.814;2022-11-20T11:12:42;97543.78;;;9.00;100.00
28665;BME280;15850;47.524;7.814;2022-11-20T11:15:12;97537.03;;;9.48;100.00
28665;BME280;15850;47.524;7.814;2022-11-20T11:17:45;97530.91;;;9.84;95.98
28665;BME280;15850;47.524;7.814;2022-11-20T11:20:14;97527.25;;;9.68;97.74
28665;BME280;15850;47.524;7.814;2022-11-20T11:22:43;97528.16;;;9.72;96.67
28665;BME280;15850;47.524;7.814;2022-11-20T11:25:09;97521.09;;;9.59;95.51
28665;BME280;15850;47.524;7.814;2022-11-20T11:27:45;97514.72;;;9.88;97.99
28665;BME280;15850;47.524;7.814;2022-11-20T11:30:13;97512.34;;;9.86;97.70
28665;BME280;15850;47.524;7.814;2022-11-20T11:32:49;97506.13;;;9.86;95.79
28665;BME280;15850;47.524;7.814;2022-11-20T11:35:22;97508.50;;;10.00;95.26
28665;BME280;15850;47.524;7.814;2022-11-20T11:37:48;97503.09;;;10.12;93.50
28665;BME280;15850;47.524;7.814;2022-11-20T11:40:14;97495.53;;;10.18;92.50
28665;BME280;15850;47.524;7.814;2022-11-20T11:42:41;97494.06;;;10.32;91.39
28665;BME280;15850;47.524;7.814;2022-11-20T11:45:11;97487.81;;;10.20;87.82
28665;BME280;15850;47.524;7.814;2022-11-20T11:47:55;97489.41;;;10.08;92.04
28665;BME280;15850;47.524;7.814;2022-11-20T11:50:22;97486.34;;;9.98;88.54
28665;BME280;15850;47.524;7.814;2022-11-20T11:52:54;97480.09;;;9.97;92.59
28665;BME280;15850;47.524;7.814;2022-11-20T11:55:25;97471.75;;;9.57;85.60
28665;BME280;15850;47.524;7.814;2022-11-20T12:00:29;97463.09;;;9.09;93.66
28665;BME280;15850;47.524;7.814;2022-11-20T12:03:04;97383.00;;;9.03;93.50
28665;BME280;15850;47.524;7.814;2022-11-20T12:05:37;97424.56;;;9.61;88.75
28665;BME280;15850;47.524;7.814;2022-11-20T12:08:09;97411.28;;;9.02;88.20
28665;BME280;15850;47.524;7.814;2022-11-20T12:10:44;97439.69;;;9.38;88.43
28665;BME280;15850;47.524;7.814;2022-11-20T12:13:20;97430.56;;;9.55;89.51
28665;BME280;15850;47.524;7.814;2022-11-20T12:15:48;97399.38;;;9.28;88.21
28665;BME280;15850;47.524;7.814;2022-11-20T12:18:16;97430.47;;;9.63;86.09
28665;BME280;15850;47.524;7.814;2022-11-20T12:20:48;97427.19;;;9.58;88.12
28665;BME280;15850;47.524;7.814;2022-11-20T12:23:25;97420.72;;;9.62;87.20
28665;BME280;15850;47.524;7.814;2022-11-20T12:25:56;97363.88;;;9.33;85.25
28665;BME280;15850;47.524;7.814;2022-11-20T12:28:47;97374.88;;;9.49;88.51
28665;BME280;15850;47.524;7.814;2022-11-20T12:31:32;97371.34;;;9.36;90.10
28665;BME280;15850;47.524;7.814;2022-11-20T12:34:13;97425.22;;;9.13;87.81
28665;BME280;15850;47.524;7.814;2022-11-20T12:36:47;97412.56;;;8.42;91.21
28665;BME280;15850;47.524;7.814;2022-11-20T12:39:32;97422.47;;;8.38;94.39
28665;BME280;15850;47.524;7.814;2022-11-20T12:42:13;97357.31;;;8.26;93.90
28665;BME280;15850;47.524;7.814;2022-11-20T12:45:02;97423.13;;;8.77;93.66
28665;BME280;15850;47.524;7.814;2022-11-20T12:47:42;97294.06;;;8.21;93.19
28665;BME280;15850;47.524;7.814;2022-11-20T12:50:17;97421.78;;;9.04;89.88
28665;BME280;15850;47.524;7.814;2022-11-20T12:52:51;97426.50;;;8.74;91.92
28665;BME280;15850;47.524;7.814;2022-11-20T12:55:31;97397.78;;;8.93;90.37
28665;BME280;15850;47.524;7.814;2022-11-20T12:58:04;97429.25;;;9.28;90.88
28665;BME280;15850;47.524;7.814;2022-11-20T13:00:36;97366.41;;;8.72;89.80
28665;BME280;15850;47.524;7.814;2022-11-20T13:03:16;97382.69;;;8.84;90.03
28665;BME280;15850;47.524;7.814;2022-11-20T13:05:55;97428.84;;;9.50;85.64
28665;BME280;15850;47.524;7.814;2022-11-20T13:08:25;97429.66;;;9.63;86.67
28665;BME280;15850;47.524;7.814;2022-11-20T13:11:19;97418.09;;;9.41;88.08
28665;BME280;15850;47.524;7.814;2022-11-20T13:14:01;97300.38;;;8.67;90.04
28665;BME280;15850;47.524;7.814;2022-11-20T13:16:33;97365.38;;;9.09;88.89
28665;BME280;15850;47.524;7.814;2022-11-20T13:22:11;97404.00;;;10.22;98.65